Terminal Aerodrome Forecast
Issued by NWS

Home | Current Version | Previous Version | Text Only | Print | Product List | Glossary On
Versions: 1 2 3 4 5 6 7 8 9 10 11 12 13 14 15 16 17 18 19
000
FTUS42 KFFC 291606 AAB
TAFRYY
TAF AMD
KRYY 291606Z 2916/3012 21009G15KT P6SM BKN200
     FM291900 22010G16KT P6SM BKN080
     FM292300 22008KT P6SM SCT025 BKN080
     FM300100 24005KT P6SM BKN025 OVC080 PROB30 3001/3005 -RA BKN012
     FM300900 32011G18KT P6SM OVC040=

USA.gov is the U.S. government's official web portal to all federal, state and local government web resources and services.